Flight Track Log - Related Links

Times and Time Zones

All times are in EDT time to prevent confusion due to time zone crossing. See the CHQ6101 flight status page for this flight to view local times or setup timezone preferences in your user account.

Time Position Orientation Groundspeed Altitude Reporting Facility
EDT Latitude Longitude Course Direction KTS MPH feet Rate Location/Type
Thu 09:22:14 PM 40.7667 -73.8500 143° Southeast 153 176 900  Level New York TRACON
Thu 09:23:08 PM 40.7333 -73.8167 143° Southeast 191 220 2,600 2,053 Climbing New York TRACON
Thu 09:24:08 PM 40.7667 -73.7833 37° Northeast 218 251 4,800 2,050 Climbing New York TRACON
Thu 09:25:08 PM 40.8333 -73.7333 30° Northeast 266 306 6,700 2,100 Climbing New York TRACON
Thu 09:26:08 PM 40.9000 -73.7000 21° North 273 314 9,000 1,730 Climbing New York TRACON
Thu 09:27:51 PM 41.0375 -73.6081 27° Northeast 317 365 11,400 1,280 Climbing Boston Center
Thu 09:28:52 PM 41.1347 -73.5422 27° Northeast 359 413 12,500 984 Climbing Boston Center
Thu 09:29:53 PM 41.2292 -73.4797 26° Northeast 378 435 13,400 1,073 Climbing Boston Center
Thu 09:30:55 PM 41.3267 -73.4156 26° Northeast 388 447 14,700 1,317 Climbing Boston Center
Thu 09:31:56 PM 41.4219 -73.3525 26° Northeast 388 447 16,100 1,377 Climbing Boston Center
Thu 09:32:57 PM 41.5128 -73.2719 34° Northeast 392 451 17,500 1,426 Climbing Boston Center
Thu 09:33:58 PM 41.5822 -73.1775 45° Northeast 382 440 19,000 1,967 Climbing Boston Center
Thu 09:34:59 PM 41.6636 -73.1156 30° Northeast 351 404 21,500 2,262 Climbing Boston Center
Thu 09:36:00 PM 41.7536 -73.1258 355° North 326 375 23,600 2,016 Climbing Boston Center
Thu 09:37:01 PM 41.8389 -73.1414 352° North 311 358 25,600 1,574 Climbing Boston Center
Thu 09:38:02 PM 41.9233 -73.1564 352° North 309 356 26,800 1,230 Climbing Boston Center
Thu 09:39:03 PM 42.0322 -73.1761 352° North 328 377 28,100 1,328 Climbing Boston Center
Thu 09:40:04 PM 42.1261 -73.1781 359° North 337 388 29,500 1,328 Climbing Boston Center
Thu 09:41:05 PM 42.2017 -73.0956 39° Northeast 357 411 30,800 738 Climbing Boston Center
Thu 09:42:06 PM 42.2617 -72.9833 54° Northeast 370 426 31,000 98 Climbing Boston Center
Thu 09:43:08 PM 42.3292 -72.8583 54° Northeast 413 475 31,000  Level Boston Center
Thu 09:44:09 PM 42.4000 -72.7183 56° Northeast 450 518 31,000  Level Boston Center
Thu 09:45:10 PM 42.4972 -72.6106 39° Northeast 460 529 31,000  Level Boston Center
Thu 09:46:11 PM 42.5922 -72.4911 43° Northeast 463 533 31,000  Level Boston Center
Thu 09:47:12 PM 42.6889 -72.3431 48° Northeast 469 540 31,000  Level Boston Center
Thu 09:48:13 PM 42.7775 -72.2028 49° Northeast 473 544 31,000  Level Boston Center
Thu 09:49:14 PM 42.8642 -72.0667 49° Northeast 476 548 31,000  Level Boston Center
Thu 09:50:15 PM 42.9522 -71.9289 49° Northeast 478 550 31,000  Level Boston Center
Thu 09:51:16 PM 43.0381 -71.7911 50° Northeast 479 551 31,000  Level Boston Center
Thu 09:52:17 PM 43.1247 -71.6528 49° Northeast 479 551 31,000  Level Boston Center
Thu 09:53:18 PM 43.2122 -71.5139 49° Northeast 482 555 31,000  Level Boston Center
Thu 09:54:19 PM 43.2978 -71.3719 50° Northeast 482 555 31,000  Level Boston Center
Thu 09:55:20 PM 43.3847 -71.2322 49° Northeast 483 556 31,000  Level Boston Center
Thu 09:56:21 PM 43.4722 -71.0917 49° Northeast 483 556 31,000  Level Boston Center
Thu 09:57:22 PM 43.5758 -70.9200 50° Northeast 483 556 31,000  Level Boston Center
Thu 09:58:23 PM 43.6589 -70.7853 50° Northeast 484 557 31,000 -443 Level Boston Center
Thu 09:59:24 PM 43.7464 -70.6411 50° Northeast 484 557 30,100 -1,180 Descending Boston Center
Thu 10:00:25 PM 43.8331 -70.4986 50° Northeast 484 557 28,600 -1,426 Descending Boston Center
Thu 10:01:26 PM 43.9183 -70.3536 51° Northeast 484 557 27,200 -1,475 Descending Boston Center
Thu 10:02:27 PM 44.0050 -70.2111 50° Northeast 483 556 25,600 -1,525 Descending Boston Center
Thu 10:03:28 PM 44.0914 -70.0658 50° Northeast 485 558 24,100 -1,180 Descending Boston Center
Thu 10:04:29 PM 44.1733 -69.9258 51° Northeast 468 539 23,200 -1,525 Descending Boston Center
Thu 10:05:30 PM 44.2503 -69.7953 51° Northeast 439 505 21,000 -2,459 Descending Boston Center
Thu 10:06:31 PM 44.3353 -69.6519 50° Northeast 429 494 18,200 -2,213 Descending Boston Center
Thu 10:07:32 PM 44.3972 -69.5450 51° Northeast 414 476 16,500 -2,557 Descending Boston Center
Thu 10:08:33 PM 44.4800 -69.4039 51° Northeast 396 456 13,000 -2,727 Descending Boston Center
Thu 10:09:33 PM 44.5442 -69.2922 51° Northeast 377 434 11,000 -1,884 Descending Boston Center
Thu 10:10:34 PM 44.5953 -69.2036 51° Northeast 304 350 9,200 -1,770 Descending Boston Center
Thu 10:11:35 PM 44.6433 -69.1206 51° Northeast 282 325 7,400 -2,016 Descending Boston Center
Thu 10:12:36 PM 44.6878 -69.0417 52° Northeast 264 304 5,100 -2,115 Descending Boston Center
Thu 10:13:37 PM 44.7475 -68.9986 27° Northeast 250 288 3,100 -1,377 Descending Boston Center
Thu 10:14:38 PM 44.8111 -68.9903 North 237 273 2,300 -393 Descending Boston Center
Thu 10:15:39 PM 44.8628 -68.9739 13° North 212 244 2,300 -420 Level Boston Center
Thu 10:17:01 PM 44.8569 -68.8972 96° East 154 177 1,300 -713 Descending Boston Center
Thu 10:18:02 PM 44.8294 -68.8619 138° Southeast 140 161 600 -492 Descending Boston Center
Thu 10:19:03 PM 44.8056 -68.8264 133° Southeast 138 159 300 -295 Descending Boston Center

Login

Don't have an account? Register now (free) for customized features, flight alerts, and more!